Time;durP1;ratioP1;P1;durP2;ratioP2;P2;SDS_P1;SDS_P2;PMS_P1;PMS_P2;Temp;Humidity;BMP_temperature;BMP_pressure;BME280_temperature;BME280_humidity;BME280_pressure;Samples;Min_cycle;Max_cycle;Signal;HPM_P1;HPM_P2
2022/07/30 00:01:33;;;;;;;5.35;2.20;;;;;;;14.95;70.58;101810.02;1711094;82;21537;-91
2022/07/30 00:04:09;;;;;;;4.83;2.40;;;;;;;14.89;70.64;101811.20;1713026;82;21495;-91
2022/07/30 00:06:36;;;;;;;6.22;2.42;;;;;;;14.84;70.75;101810.63;1739517;82;21776;-84
2022/07/30 00:09:03;;;;;;;5.45;2.20;;;;;;;14.78;70.81;101807.39;1718881;82;21019;-91
2022/07/30 00:11:30;;;;;;;4.03;2.25;;;;;;;14.73;70.92;101808.62;1716868;82;21092;-84
2022/07/30 00:13:57;;;;;;;4.40;2.65;;;;;;;14.68;71.04;101809.36;1731139;82;21727;-90
2022/07/30 00:16:29;;;;;;;3.60;2.10;;;;;;;14.63;71.12;101810.98;1706411;82;21112;-91
2022/07/30 00:18:56;;;;;;;4.00;2.25;;;;;;;14.58;71.20;101808.20;1706933;83;21989;-89
2022/07/30 00:21:23;;;;;;;4.20;2.55;;;;;;;14.54;71.27;101813.81;1719599;82;21074;-84
2022/07/30 00:23:50;;;;;;;2.58;1.85;;;;;;;14.51;71.36;101807.13;1725377;82;21118;-84
2022/07/30 00:26:17;;;;;;;4.05;2.10;;;;;;;14.49;71.40;101806.61;1728110;82;21375;-84
2022/07/30 00:28:43;;;;;;;4.67;2.10;;;;;;;14.48;71.51;101803.07;1733898;82;21165;-84
2022/07/30 00:31:16;;;;;;;4.45;2.42;;;;;;;14.48;71.49;101804.39;1709592;82;21749;-92
2022/07/30 00:33:43;;;;;;;3.77;2.27;;;;;;;14.48;71.57;101802.19;1715478;82;21040;-85
2022/07/30 00:36:10;;;;;;;3.15;2.35;;;;;;;14.43;71.59;101798.52;1725510;82;21110;-85
2022/07/30 00:38:37;;;;;;;4.30;2.15;;;;;;;14.45;71.62;101801.69;1725731;82;21047;-91
2022/07/30 00:41:03;;;;;;;5.75;2.80;;;;;;;14.45;71.64;101806.98;1728425;82;21146;-85
2022/07/30 00:43:30;;;;;;;5.03;2.45;;;;;;;14.44;71.71;101806.94;1710238;82;21765;-85
2022/07/30 00:45:57;;;;;;;4.40;2.52;;;;;;;14.43;71.71;101800.72;1736063;82;21063;-85
2022/07/30 00:48:24;;;;;;;5.97;2.72;;;;;;;14.44;71.77;101799.00;1739725;82;21067;-85
2022/07/30 00:50:51;;;;;;;5.30;2.40;;;;;;;14.42;71.82;101798.06;1718766;82;21087;-85
2022/07/30 00:53:18;;;;;;;5.10;2.27;;;;;;;14.41;71.86;101793.61;1721948;82;21147;-84
2022/07/30 00:55:44;;;;;;;3.95;2.10;;;;;;;14.41;71.94;101794.49;1709483;83;21771;-91
2022/07/30 00:58:11;;;;;;;4.50;2.27;;;;;;;14.41;71.93;101790.95;1710488;83;21079;-92
2022/07/30 01:00:38;;;;;;;9.45;2.90;;;;;;;14.40;71.93;101792.72;1711347;82;21081;-85
2022/07/30 01:03:06;;;;;;;4.25;2.58;;;;;;;14.39;71.92;101789.15;1739465;82;21045;-91
2022/07/30 01:05:33;;;;;;;3.47;2.60;;;;;;;14.38;71.97;101779.86;1737513;82;21090;-85
2022/07/30 01:07:59;;;;;;;5.70;3.10;;;;;;;14.38;71.94;101780.75;1703781;82;21900;-85
2022/07/30 01:10:26;;;;;;;7.42;2.65;;;;;;;14.39;72.01;101775.91;1710692;83;21067;-85
2022/07/30 01:12:53;;;;;;;4.58;2.60;;;;;;;14.39;72.01;101775.91;1716623;82;21067;-91
2022/07/30 01:15:28;;;;;;;3.75;2.42;;;;;;;14.36;71.96;101769.23;1712367;82;21091;-91
2022/07/30 01:17:54;;;;;;;4.97;3.10;;;;;;;14.36;72.09;101765.69;1713792;82;22023;-85
2022/07/30 01:20:28;;;;;;;4.58;2.90;;;;;;;14.33;72.22;101763.84;1717185;82;21862;-85
2022/07/30 01:23:21;;;;;;;6.00;3.08;;;;;;;14.30;72.25;101760.21;1695739;83;21066;-85
2022/07/30 01:26:05;;;;;;;3.47;2.60;;;;;;;14.30;72.31;101765.50;1721031;82;21039;-85
2022/07/30 01:28:35;;;;;;;4.80;2.80;;;;;;;14.26;72.38;101755.70;1735069;82;21047;-92
2022/07/30 01:31:03;;;;;;;4.50;2.60;;;;;;;14.23;72.44;101754.28;1714828;82;21662;-85
2022/07/30 01:33:30;;;;;;;9.33;2.80;;;;;;;14.18;72.50;101759.03;1708694;82;21779;-91
2022/07/30 01:35:57;;;;;;;7.50;2.60;;;;;;;14.14;72.68;101757.17;1708958;83;21056;-91
2022/07/30 01:38:26;;;;;;;4.58;2.60;;;;;;;14.12;72.78;101753.59;1710212;83;21067;-92
2022/07/30 01:40:54;;;;;;;3.85;2.47;;;;;;;14.11;72.78;101750.89;1719686;82;21417;-91
2022/07/30 01:43:22;;;;;;;5.35;2.50;;;;;;;14.08;72.82;101742.45;1721572;82;21047;-92
2022/07/30 01:45:49;;;;;;;3.33;2.42;;;;;;;14.04;72.86;101737.94;1703152;81;21780;-85
2022/07/30 01:48:20;;;;;;;4.22;2.50;;;;;;;14.02;72.96;101733.44;1705261;82;21864;-92
2022/07/30 01:50:52;;;;;;;4.58;2.70;;;;;;;13.99;73.07;101727.21;1728027;82;21000;-92
2022/07/30 01:53:24;;;;;;;3.85;2.52;;;;;;;13.95;73.17;101727.98;1709412;83;21116;-85
2022/07/30 01:55:51;;;;;;;5.35;2.60;;;;;;;13.92;73.20;101730.54;1710252;82;21178;-92
2022/07/30 01:58:18;;;;;;;8.55;3.05;;;;;;;13.89;73.45;101732.20;1700263;82;21986;-85
2022/07/30 02:00:45;;;;;;;4.53;2.70;;;;;;;13.85;73.43;101730.34;1726298;82;21083;-85
2022/07/30 02:03:12;;;;;;;3.95;2.50;;;;;;;13.82;73.36;101728.52;1651491;85;21081;-85
2022/07/30 02:05:40;;;;;;;4.10;2.80;;;;;;;13.79;73.37;101721.80;1661787;85;21333;-85
2022/07/30 02:08:27;;;;;;;4.28;2.55;;;;;;;13.76;73.42;101729.68;1681744;82;21647;-91
2022/07/30 02:11:15;;;;;;;7.22;3.25;;;;;;;13.71;73.43;101724.67;1713594;82;21754;-85
2022/07/30 02:13:46;;;;;;;6.70;2.90;;;;;;;13.65;73.59;101713.50;1635350;86;21074;-91
2022/07/30 02:16:28;;;;;;;4.65;2.58;;;;;;;13.63;73.77;101716.94;1653773;85;21084;-91
2022/07/30 02:19:15;;;;;;;4.00;2.95;;;;;;;13.59;73.94;101718.63;1655574;84;21587;-85
2022/07/30 02:21:46;;;;;;;4.53;3.08;;;;;;;13.55;74.05;101704.41;1668918;85;21087;-85
2022/07/30 02:24:15;;;;;;;5.60;3.02;;;;;;;13.54;74.07;101703.93;1672372;85;21770;-85
2022/07/30 02:26:42;;;;;;;5.03;2.83;;;;;;;13.50;74.16;101694.13;1672879;84;21040;-94
2022/07/30 02:29:09;;;;;;;3.58;2.83;;;;;;;13.49;74.50;101690.11;1647829;87;21095;-93
2022/07/30 02:31:36;;;;;;;3.17;2.25;;;;;;;13.48;74.78;101680.40;1647163;85;21609;-84
2022/07/30 02:34:04;;;;;;;3.72;2.77;;;;;;;13.51;75.03;101681.35;1666847;85;21071;-93
2022/07/30 02:36:31;;;;;;;5.05;2.25;;;;;;;13.52;75.15;101684.48;1700992;84;21782;-84
2022/07/30 02:38:58;;;;;;;2.85;2.20;;;;;;;13.54;75.30;101679.23;1706093;83;21088;-91
2022/07/30 02:41:26;;;;;;;5.25;2.30;;;;;;;13.55;75.31;101686.30;1712448;82;21159;-87
2022/07/30 02:43:52;;;;;;;3.70;2.58;;;;;;;13.56;75.34;101689.43;1709920;82;21048;-91
2022/07/30 02:46:20;;;;;;;4.20;2.83;;;;;;;13.58;75.21;101689.05;1714073;82;21101;-92
2022/07/30 02:48:46;;;;;;;5.20;2.95;;;;;;;13.54;75.07;101684.09;1722113;82;22476;-85
2022/07/30 02:51:16;;;;;;;5.90;2.90;;;;;;;13.51;75.11;101680.03;1719743;82;21682;-85
2022/07/30 02:53:45;;;;;;;3.77;2.47;;;;;;;13.50;75.20;101684.87;1719744;82;21163;-93
2022/07/30 02:56:12;;;;;;;4.78;2.62;;;;;;;13.50;75.26;101687.95;1723046;82;21056;-93
2022/07/30 02:58:39;;;;;;;6.78;2.20;;;;;;;13.50;75.37;101687.52;1665053;85;21091;-85
2022/07/30 03:01:06;;;;;;;3.95;2.33;;;;;;;13.52;75.41;101684.48;1692219;82;21742;-85
2022/07/30 03:03:33;;;;;;;5.55;2.65;;;;;;;13.54;75.49;101688.50;1714586;82;21119;-92
2022/07/30 03:06:04;;;;;;;2.85;2.27;;;;;;;13.56;75.46;101687.67;1720858;82;21078;-93
2022/07/30 03:08:31;;;;;;;3.40;2.30;;;;;;;13.59;75.54;101683.80;1688210;84;21988;-94
2022/07/30 03:10:59;;;;;;;5.08;2.40;;;;;;;13.62;75.54;101680.33;1707879;83;21073;-93
2022/07/30 03:13:27;;;;;;;3.70;2.27;;;;;;;13.67;75.54;101677.83;1663819;85;21789;-93
2022/07/30 03:15:54;;;;;;;3.92;2.60;;;;;;;13.70;75.50;101680.13;1688618;84;21676;-84
2022/07/30 03:18:21;;;;;;;2.60;2.37;;;;;;;13.72;75.40;101686.77;1654853;84;21055;-84
2022/07/30 03:20:50;;;;;;;4.08;2.45;;;;;;;13.74;75.31;101686.38;1643208;85;21063;-91
2022/07/30 03:23:18;;;;;;;5.12;2.30;;;;;;;13.78;75.26;101682.55;1672461;85;21088;-92
2022/07/30 03:25:49;;;;;;;5.35;2.58;;;;;;;13.81;75.11;101687.02;1685002;84;21787;-93
2022/07/30 03:28:16;;;;;;;5.47;2.70;;;;;;;13.85;75.17;101694.20;1702642;83;21636;-85
2022/07/30 03:30:45;;;;;;;4.80;2.77;;;;;;;13.93;75.21;101699.70;1702452;83;21628;-85
2022/07/30 03:33:12;;;;;;;4.70;2.60;;;;;;;14.03;75.18;101703.04;1704667;83;21063;-92
2022/07/30 03:35:39;;;;;;;3.85;2.30;;;;;;;14.16;75.20;101709.55;1675146;85;21086;-85
2022/07/30 03:38:06;;;;;;;3.95;2.47;;;;;;;14.31;75.08;101714.34;1678993;85;23155;-85
2022/07/30 03:40:32;;;;;;;4.67;2.50;;;;;;;14.49;74.96;101713.89;1681876;84;21072;-92
2022/07/30 03:42:59;;;;;;;5.12;2.65;;;;;;;14.71;74.82;101716.22;1642753;87;21191;-92
2022/07/30 03:45:33;;;;;;;7.70;2.72;;;;;;;14.97;74.72;101714.17;1696520;82;21062;-93
2022/07/30 03:48:00;;;;;;;6.30;2.83;;;;;;;15.52;75.37;101710.90;1698276;84;21123;-92
2022/07/30 03:50:27;;;;;;;5.10;2.67;;;;;;;17.18;76.95;101707.52;1699494;84;21835;-85
2022/07/30 03:52:54;;;;;;;3.80;2.40;;;;;;;19.11;75.71;101707.11;1702492;84;21403;-85
2022/07/30 03:55:21;;;;;;;5.35;2.80;;;;;;;20.91;73.51;101706.06;1702490;84;21059;-83
2022/07/30 03:57:48;;;;;;;4.78;2.30;;;;;;;22.35;70.58;101706.20;1648315;85;21071;-90
2022/07/30 04:00:15;;;;;;;3.20;2.17;;;;;;;23.61;67.91;101695.86;1688543;84;21083;-83
2022/07/30 04:02:45;;;;;;;5.45;2.35;;;;;;;25.76;63.84;101697.81;1684694;84;21785;-91
2022/07/30 04:05:12;;;;;;;3.27;2.15;;;;;;;25.76;63.84;101697.81;1680925;83;21067;-84
2022/07/30 04:07:39;;;;;;;2.70;1.82;;;;;;;26.55;61.28;101704.41;1695120;82;21076;-84
2022/07/30 04:10:07;;;;;;;3.30;2.05;;;;;;;26.51;58.14;101693.27;1661538;85;21091;-92
2022/07/30 04:12:34;;;;;;;3.55;1.87;;;;;;;25.77;57.05;101694.17;1690550;84;21082;-84
2022/07/30 04:15:01;;;;;;;4.37;2.45;;;;;;;25.82;57.45;101699.00;1693403;83;21738;-91
2022/07/30 04:17:52;;;;;;;3.72;2.20;;;;;;;26.81;57.70;101694.75;1672017;85;21043;-91
2022/07/30 04:20:30;;;;;;;5.12;2.27;;;;;;;28.05;56.27;101694.20;1656338;84;21149;-84
2022/07/30 04:22:57;;;;;;;2.98;2.33;;;;;;;29.49;54.50;101690.44;1638142;85;21118;-84
2022/07/30 04:25:24;;;;;;;2.90;1.95;;;;;;;30.80;52.93;101694.94;1629067;85;21091;-84
2022/07/30 04:27:52;;;;;;;4.78;2.02;;;;;;;31.88;50.93;101687.17;1666796;84;21734;-92
2022/07/30 04:30:18;;;;;;;3.42;2.27;;;;;;;32.27;48.71;101677.11;1705613;83;21049;-91
2022/07/30 04:32:45;;;;;;;2.98;1.85;;;;;;;32.22;47.29;101675.09;1686990;83;21079;-84
2022/07/30 04:35:12;;;;;;;3.50;1.92;;;;;;;32.27;46.28;101668.45;1684654;84;21095;-92
2022/07/30 04:37:39;;;;;;;2.92;2.10;;;;;;;31.87;45.08;101671.81;1648089;85;21418;-92
2022/07/30 04:40:07;;;;;;;3.62;1.87;;;;;;;32.18;45.08;101667.55;1705755;84;21787;-84
2022/07/30 04:42:34;;;;;;;3.37;1.75;;;;;;;32.99;44.65;101666.46;1691856;83;21702;-85
2022/07/30 04:45:01;;;;;;;3.10;2.08;;;;;;;34.19;43.72;101673.33;1687502;84;21066;-84
2022/07/30 04:47:28;;;;;;;7.70;1.90;;;;;;;35.20;42.35;101669.43;1707728;81;21189;-85
2022/07/30 04:49:54;;;;;;;2.65;1.55;;;;;;;35.69;40.76;101660.75;1723461;82;21315;-84
2022/07/30 04:52:21;;;;;;;2.62;1.57;;;;;;;35.65;39.20;101671.50;1713332;82;21607;-93
2022/07/30 04:54:55;;;;;;;4.40;1.37;;;;;;;35.13;38.56;101666.66;1722401;82;21043;-92
2022/07/30 04:57:21;;;;;;;1.45;1.00;;;;;;;35.40;38.99;101674.95;1738441;82;21090;-85
2022/07/30 04:59:48;;;;;;;3.47;1.02;;;;;;;36.05;38.22;101666.08;1738397;81;21107;-85
2022/07/30 05:02:15;;;;;;;2.02;1.10;;;;;;;35.88;36.60;101669.97;1739056;82;21071;-85
2022/07/30 05:04:41;;;;;;;1.57;1.00;;;;;;;34.93;36.24;101679.77;1709946;82;21712;-85
2022/07/30 05:07:08;;;;;;;5.42;0.85;;;;;;;34.71;36.54;101675.22;1728643;82;21105;-93
2022/07/30 05:09:35;;;;;;;1.72;1.00;;;;;;;35.15;36.30;101674.28;1711676;82;22125;-93
2022/07/30 05:12:02;;;;;;;1.60;1.00;;;;;;;35.73;35.27;101671.02;1725652;82;21623;-85
2022/07/30 05:14:29;;;;;;;2.67;1.17;;;;;;;35.90;34.77;101669.38;1718430;82;21174;-84
2022/07/30 05:16:56;;;;;;;2.52;0.95;;;;;;;36.26;34.52;101660.14;1739857;82;21743;-92
2022/07/30 05:19:23;;;;;;;1.70;1.00;;;;;;;36.63;34.13;101667.16;1732854;82;21067;-84
2022/07/30 05:21:50;;;;;;;6.33;1.27;;;;;;;37.41;33.58;101650.56;1737462;82;21078;-84
2022/07/30 05:24:16;;;;;;;2.15;0.95;;;;;;;38.11;32.95;101664.11;1722935;82;21047;-85
2022/07/30 05:26:44;;;;;;;2.30;1.07;;;;;;;38.33;31.57;101663.78;1710890;82;21057;-85
2022/07/30 05:29:10;;;;;;;2.95;0.98;;;;;;;37.80;31.25;101666.41;1719416;82;21806;-93
2022/07/30 05:31:37;;;;;;;1.82;0.98;;;;;;;37.46;30.85;101662.05;1734447;82;21577;-93
2022/07/30 05:34:04;;;;;;;2.27;1.27;;;;;;;37.50;31.06;101662.23;1706174;82;21035;-84
2022/07/30 05:36:33;;;;;;;1.42;0.98;;;;;;;37.85;30.50;101655.95;1705083;82;21074;-85
2022/07/30 05:39:00;;;;;;;2.27;1.17;;;;;;;37.60;29.77;101653.27;1716265;82;21091;-84
2022/07/30 05:41:26;;;;;;;3.75;1.17;;;;;;;37.25;29.40;101656.80;1739326;82;21709;-85
2022/07/30 05:43:53;;;;;;;1.82;0.90;;;;;;;36.62;29.53;101661.28;1714415;82;21102;-85
2022/07/30 05:46:20;;;;;;;1.85;0.93;;;;;;;35.12;29.12;101658.95;1707716;83;21089;-85
2022/07/30 05:48:47;;;;;;;1.87;1.07;;;;;;;33.17;29.58;101658.25;1709722;83;21056;-84
2022/07/30 05:51:14;;;;;;;1.62;1.02;;;;;;;31.29;30.28;101654.20;1701600;82;21254;-92
2022/07/30 05:53:44;;;;;;;1.15;0.70;;;;;;;29.47;31.75;101651.19;1725153;83;21796;-93
2022/07/30 05:56:11;;;;;;;2.00;0.95;;;;;;;28.10;32.46;101652.98;1716123;83;21071;-84
2022/07/30 05:58:38;;;;;;;1.50;0.98;;;;;;;26.88;33.80;101651.78;1700765;83;21060;-92
2022/07/30 06:01:05;;;;;;;2.83;1.12;;;;;;;26.20;34.92;101651.34;1701653;82;21103;-92
2022/07/30 06:03:32;;;;;;;2.60;1.17;;;;;;;25.73;35.86;101654.29;1696894;84;21050;-92
2022/07/30 06:05:59;;;;;;;4.37;1.50;;;;;;;25.25;36.07;101650.91;1703092;83;21945;-92
2022/07/30 06:08:26;;;;;;;1.45;0.80;;;;;;;24.73;36.72;101654.17;1719189;83;21086;-92
2022/07/30 06:10:53;;;;;;;1.15;0.80;;;;;;;24.35;37.31;101647.67;1705991;83;21554;-84
2022/07/30 06:13:19;;;;;;;2.42;0.88;;;;;;;24.05;37.82;101654.02;1721507;83;21550;-93
2022/07/30 06:15:47;;;;;;;2.90;0.90;;;;;;;23.84;38.33;101653.91;1724244;82;21628;-84
2022/07/30 06:18:13;;;;;;;1.92;0.65;;;;;;;23.60;39.01;101656.02;1707465;82;21795;-93
2022/07/30 06:20:40;;;;;;;1.20;0.70;;;;;;;23.32;39.04;101654.64;1702878;83;21102;-93
2022/07/30 06:23:07;;;;;;;2.62;1.10;;;;;;;22.97;39.39;101656.81;1709877;82;21346;-83
2022/07/30 06:25:34;;;;;;;3.92;0.78;;;;;;;22.84;40.00;101652.50;1724716;82;21000;-93
2022/07/30 06:28:01;;;;;;;1.07;0.60;;;;;;;22.69;40.43;101653.13;1711256;82;21075;-93
2022/07/30 06:30:28;;;;;;;1.50;1.00;;;;;;;22.42;40.78;101642.22;1717201;82;22585;-84
2022/07/30 06:32:55;;;;;;;1.70;0.80;;;;;;;22.25;41.26;101649.08;1705450;82;21060;-92
2022/07/30 06:35:22;;;;;;;1.27;0.72;;;;;;;22.20;41.58;101644.63;1696236;83;21047;-93
2022/07/30 06:37:51;;;;;;;2.62;0.88;;;;;;;22.18;41.88;101643.30;1714607;83;21272;-84
2022/07/30 06:40:17;;;;;;;2.55;0.95;;;;;;;22.24;42.12;101649.05;1713684;82;21060;-93
2022/07/30 06:42:48;;;;;;;1.55;0.80;;;;;;;22.22;42.12;101637.45;1700761;83;21803;-94
2022/07/30 06:45:14;;;;;;;1.67;0.93;;;;;;;22.31;42.40;101647.67;1707687;82;21066;-92
2022/07/30 06:47:41;;;;;;;1.50;0.60;;;;;;;22.28;42.46;101645.04;1720772;83;21323;-83
2022/07/30 06:50:09;;;;;;;4.50;0.82;;;;;;;22.24;42.54;101645.95;1718035;82;21585;-93
2022/07/30 06:52:36;;;;;;;6.83;1.10;;;;;;;22.24;42.77;101649.97;1708676;83;21024;-84
2022/07/30 06:55:04;;;;;;;1.52;0.80;;;;;;;22.36;42.87;101648.11;1721288;83;21749;-84
2022/07/30 06:57:31;;;;;;;5.70;1.60;;;;;;;22.36;42.78;101648.98;1719508;83;21084;-91
2022/07/30 06:59:58;;;;;;;3.52;0.93;;;;;;;22.48;42.87;101654.22;1717076;83;21056;-84
2022/07/30 07:02:25;;;;;;;2.27;1.02;;;;;;;22.53;43.09;101654.19;1706734;83;21122;-84
2022/07/30 07:04:52;;;;;;;1.57;0.68;;;;;;;22.69;43.15;101653.55;1721055;83;21115;-91
2022/07/30 07:07:18;;;;;;;1.07;0.80;;;;;;;22.84;43.16;101657.44;1698381;83;21863;-92
2022/07/30 07:09:48;;;;;;;1.77;0.72;;;;;;;22.92;42.97;101649.29;1718595;83;21060;-91
2022/07/30 07:12:15;;;;;;;2.42;0.80;;;;;;;22.89;42.77;101650.19;1714430;83;21075;-83
2022/07/30 07:14:42;;;;;;;2.20;0.90;;;;;;;22.84;42.92;101646.70;1712404;83;21103;-83
2022/07/30 07:17:09;;;;;;;1.35;0.70;;;;;;;22.83;43.03;101647.59;1722191;82;21036;-83
2022/07/30 07:19:35;;;;;;;3.33;0.90;;;;;;;22.90;43.19;101641.71;1715825;83;22546;-83
2022/07/30 07:22:05;;;;;;;2.00;1.00;;;;;;;22.92;43.37;101630.50;1703885;83;21055;-91
2022/07/30 07:24:32;;;;;;;1.55;1.02;;;;;;;22.98;43.34;101633.56;1654313;85;21087;-83
2022/07/30 07:26:58;;;;;;;3.08;0.95;;;;;;;22.94;43.23;101634.05;1659204;85;21439;-83
2022/07/30 07:29:25;;;;;;;1.37;0.82;;;;;;;22.91;43.11;101629.58;1711095;82;21553;-83
2022/07/30 07:31:52;;;;;;;3.50;1.10;;;;;;;22.86;43.19;101631.89;1696574;82;21773;-83
2022/07/30 07:34:19;;;;;;;1.70;1.17;;;;;;;22.91;43.37;101630.05;1701381;83;21108;-92
2022/07/30 07:36:46;;;;;;;0.85;0.55;;;;;;;22.91;42.79;101628.23;1702484;83;21068;-83
2022/07/30 07:39:12;;;;;;;2.95;0.75;;;;;;;22.81;42.79;101627.94;1716322;83;21645;-83
2022/07/30 07:41:39;;;;;;;2.15;1.05;;;;;;;22.85;43.08;101631.47;1701861;83;21087;-83
2022/07/30 07:44:06;;;;;;;1.62;0.95;;;;;;;22.93;43.17;101628.23;1723283;83;23004;-92
2022/07/30 07:46:33;;;;;;;2.40;0.90;;;;;;;22.91;42.98;101631.39;1714410;83;21082;-84
2022/07/30 07:48:59;;;;;;;4.65;1.10;;;;;;;22.82;43.11;101629.69;1702528;83;21135;-90
2022/07/30 07:51:27;;;;;;;3.58;1.10;;;;;;;22.76;43.12;101618.16;1715555;82;21361;-91
2022/07/30 07:53:53;;;;;;;1.47;0.80;;;;;;;22.67;42.88;101613.77;1717469;82;21067;-91
2022/07/30 07:56:21;;;;;;;2.58;1.00;;;;;;;22.58;43.07;101609.84;1730246;82;21713;-91
2022/07/30 07:58:47;;;;;;;1.30;0.70;;;;;;;22.58;43.02;101605.83;1699821;84;21047;-83
2022/07/30 08:01:14;;;;;;;2.27;0.75;;;;;;;22.50;42.84;101609.94;1732120;82;21321;-92
2022/07/30 08:03:43;;;;;;;2.25;0.70;;;;;;;22.46;42.95;101609.08;1714894;82;21076;-92
2022/07/30 08:06:10;;;;;;;2.45;0.72;;;;;;;22.45;43.29;101606.44;1728160;82;21075;-90
2022/07/30 08:08:43;;;;;;;1.67;1.00;;;;;;;22.45;43.29;101606.44;1710665;83;21747;-94
2022/07/30 08:11:10;;;;;;;0.98;0.82;;;;;;;22.49;42.93;101602.35;1685896;83;21029;-92
2022/07/30 08:13:37;;;;;;;1.92;0.90;;;;;;;22.58;42.59;101593.75;1729108;82;21650;-85
2022/07/30 08:16:04;;;;;;;2.70;0.80;;;;;;;22.74;42.40;101598.04;1711685;82;21079;-85
2022/07/30 08:18:31;;;;;;;2.90;0.70;;;;;;;22.93;41.97;101596.02;1736125;81;21031;-93
2022/07/30 08:20:58;;;;;;;1.75;1.00;;;;;;;23.03;41.74;101599.06;1723132;81;22470;-93
2022/07/30 08:23:32;;;;;;;1.80;0.75;;;;;;;23.16;41.54;101598.88;1719422;82;21146;-93
2022/07/30 08:25:58;;;;;;;;;;;;;;;23.21;41.32;101587.16;1725805;82;22025;-92
2022/07/30 08:28:25;;;;;;;0.78;0.60;;;;;;;23.30;40.90;101594.21;1737182;82;20791;-85
2022/07/30 08:30:52;;;;;;;2.02;0.82;;;;;;;23.38;41.01;101590.06;1725672;82;21060;-85
2022/07/30 08:33:19;;;;;;;1.77;1.00;;;;;;;23.47;41.01;101575.16;1724189;82;22505;-85
2022/07/30 08:35:45;;;;;;;2.45;1.17;;;;;;;23.60;40.80;101582.57;1725714;82;21121;-85
2022/07/30 08:38:13;;;;;;;1.45;0.90;;;;;;;23.72;40.43;101578.32;1735840;82;21074;-92
2022/07/30 08:40:39;;;;;;;1.65;0.90;;;;;;;23.70;40.31;101573.44;1717117;82;21159;-92
2022/07/30 08:43:07;;;;;;;1.52;0.60;;;;;;;23.72;40.55;101570.72;1716982;82;21118;-85
2022/07/30 08:45:34;;;;;;;5.42;0.95;;;;;;;23.77;40.78;101572.89;1714142;82;21758;-92
2022/07/30 08:48:01;;;;;;;2.80;0.93;;;;;;;23.74;40.94;101579.18;1666511;84;21067;-86
2022/07/30 08:50:29;;;;;;;1.25;0.70;;;;;;;23.84;40.78;101574.59;1699566;84;21280;-91
2022/07/30 08:52:56;;;;;;;5.83;1.17;;;;;;;24.03;40.60;101567.97;1674540;85;21103;-92
2022/07/30 08:55:23;;;;;;;2.72;1.55;;;;;;;24.13;40.50;101563.30;1655113;85;21028;-85
2022/07/30 08:57:50;;;;;;;3.80;1.00;;;;;;;24.11;40.72;101565.61;1647318;84;22596;-92
2022/07/30 09:00:17;;;;;;;2.47;0.90;;;;;;;24.13;40.74;101573.19;1654171;85;21075;-85
2022/07/30 09:02:44;;;;;;;1.87;1.05;;;;;;;23.96;40.39;101557.36;1643808;85;21027;-85
2022/07/30 09:05:11;;;;;;;2.80;1.00;;;;;;;23.75;40.44;101570.22;1741162;82;21054;-91
2022/07/30 09:07:38;;;;;;;2.67;1.02;;;;;;;23.63;40.68;101569.06;1745833;81;21727;-94
2022/07/30 09:10:08;;;;;;;0.98;0.72;;;;;;;23.55;40.55;101575.03;1721431;82;21570;-91
2022/07/30 09:12:44;;;;;;;4.35;1.22;;;;;;;23.44;40.89;101565.35;1735638;81;21062;-84
2022/07/30 09:15:19;;;;;;;1.90;0.70;;;;;;;23.41;41.10;101561.82;1743483;81;21090;-85
2022/07/30 09:18:03;;;;;;;2.62;0.75;;;;;;;23.35;41.05;101573.55;1738827;82;21600;-84
2022/07/30 09:20:33;;;;;;;4.90;0.82;;;;;;;23.26;41.26;101566.50;1725059;82;21103;-83
2022/07/30 09:23:02;;;;;;;4.60;0.93;;;;;;;23.18;41.32;101569.77;1737269;82;21746;-90
2022/07/30 09:25:43;;;;;;;2.50;1.02;;;;;;;23.08;41.31;101577.50;1717397;81;21126;-91
2022/07/30 09:28:14;;;;;;;2.83;0.90;;;;;;;22.94;41.43;101566.93;1709412;83;21100;-91
2022/07/30 09:30:54;;;;;;;1.87;0.80;;;;;;;22.90;41.66;101562.05;1717443;82;21167;-83
2022/07/30 09:33:36;;;;;;;1.45;0.80;;;;;;;22.88;41.75;101565.22;1724935;82;21051;-83
2022/07/30 09:36:06;;;;;;;2.67;0.80;;;;;;;22.87;41.79;101555.83;1736276;82;21781;-83
2022/07/30 09:38:50;;;;;;;4.50;1.40;;;;;;;22.77;41.76;101563.55;1718108;82;21054;-91
2022/07/30 09:41:37;;;;;;;5.28;1.02;;;;;;;22.73;41.94;101597.62;1724040;82;21119;-91
2022/07/30 09:44:05;;;;;;;2.90;0.93;;;;;;;22.68;42.12;101561.89;1718178;82;21284;-91
2022/07/30 09:46:51;;;;;;;4.87;1.50;;;;;;;22.66;41.79;101569.95;1706293;82;21690;-83
2022/07/30 09:49:24;;;;;;;2.65;1.15;;;;;;;22.62;41.84;101554.80;1727822;82;21443;-83
2022/07/30 09:51:52;;;;;;;1.72;0.90;;;;;;;22.62;41.93;101548.56;1722558;82;21066;-83
2022/07/30 09:54:19;;;;;;;3.27;1.27;;;;;;;22.60;41.95;101557.97;1724009;82;21082;-83
2022/07/30 09:56:46;;;;;;;2.00;0.80;;;;;;;22.58;41.72;101557.09;1729412;82;21648;-85
2022/07/30 09:59:31;;;;;;;2.20;1.12;;;;;;;22.57;41.71;101541.02;1726339;82;21537;-84
2022/07/30 10:01:57;;;;;;;4.40;0.90;;;;;;;22.56;41.73;101544.59;1722344;82;21377;-84
2022/07/30 10:04:29;;;;;;;2.27;0.90;;;;;;;22.50;41.75;101549.58;1732082;82;21095;-84
2022/07/30 10:06:57;;;;;;;4.92;1.05;;;;;;;22.44;41.85;101549.19;1734919;82;21515;-92
2022/07/30 10:09:33;;;;;;;1.40;1.15;;;;;;;22.46;41.80;101552.74;1726018;82;21316;-83
2022/07/30 10:12:03;;;;;;;2.17;0.90;;;;;;;22.53;41.84;101557.59;1725804;82;21087;-83
2022/07/30 10:14:36;;;;;;;1.25;0.65;;;;;;;22.49;41.57;101562.57;1733503;82;21750;-83
2022/07/30 10:17:03;;;;;;;4.30;1.00;;;;;;;22.46;41.74;101556.77;1716044;82;21105;-83
2022/07/30 10:19:31;;;;;;;1.87;0.90;;;;;;;22.45;41.61;101556.81;1727972;82;21127;-83
2022/07/30 10:21:59;;;;;;;2.58;0.78;;;;;;;22.40;41.56;101558.65;1725772;82;21138;-83
2022/07/30 10:24:26;;;;;;;2.15;1.02;;;;;;;22.30;41.59;101549.36;1731051;82;21126;-83
2022/07/30 10:26:54;;;;;;;5.08;1.65;;;;;;;22.34;41.67;101542.63;1731930;82;22556;-83
2022/07/30 10:29:21;;;;;;;4.62;3.72;;;;;;;22.37;41.54;101556.87;1728493;82;21050;-84
2022/07/30 10:31:49;;;;;;;2.92;1.55;;;;;;;22.36;41.46;101556.45;1709128;82;21157;-83
2022/07/30 10:34:17;;;;;;;3.77;0.93;;;;;;;22.41;41.55;101557.72;1735473;82;21055;-84
2022/07/30 10:36:57;;;;;;;3.25;1.15;;;;;;;22.46;41.41;101558.11;1742167;81;21055;-92
2022/07/30 10:39:31;;;;;;;2.80;0.90;;;;;;;22.56;41.31;101556.66;1712791;82;22736;-84
2022/07/30 10:42:34;;;;;;;2.08;0.82;;;;;;;22.54;41.09;101551.77;1728457;81;21262;-91
2022/07/30 10:45:36;;;;;;;2.15;1.00;;;;;;;22.54;41.33;101558.02;1722659;82;21071;-91
2022/07/30 10:48:04;;;;;;;2.87;1.30;;;;;;;22.55;41.09;101552.22;1727274;82;21611;-83
2022/07/30 10:50:30;;;;;;;8.50;1.00;;;;;;;22.47;41.20;101550.97;1688571;83;21750;-83
2022/07/30 10:53:02;;;;;;;2.60;0.88;;;;;;;22.46;41.24;101566.16;1654015;86;22770;-83
2022/07/30 10:55:32;;;;;;;3.15;1.32;;;;;;;22.45;41.35;101570.22;1688063;84;21072;-83
2022/07/30 10:58:11;;;;;;;4.08;0.90;;;;;;;22.43;41.45;101569.32;1688147;84;21068;-83
2022/07/30 11:00:55;;;;;;;3.40;0.82;;;;;;;22.43;41.64;101557.25;1684597;84;21079;-84
2022/07/30 11:03:24;;;;;;;4.10;0.90;;;;;;;22.43;41.62;101559.50;1682517;84;21592;-83
2022/07/30 11:05:55;;;;;;;3.02;0.85;;;;;;;22.40;41.56;101554.63;1678685;84;21792;-91
2022/07/30 11:08:38;;;;;;;1.30;0.70;;;;;;;22.39;41.49;101549.72;1657812;84;21719;-92
2022/07/30 11:11:29;;;;;;;4.47;0.95;;;;;;;22.35;41.49;101558.68;1687382;84;21323;-93
2022/07/30 11:14:01;;;;;;;0.90;0.60;;;;;;;22.31;41.78;101560.50;1651432;86;21424;-83
2022/07/30 11:16:39;;;;;;;2.72;0.80;;;;;;;22.37;41.97;101558.20;1646400;86;21079;-92
2022/07/30 11:19:16;;;;;;;2.27;0.62;;;;;;;22.41;42.02;101551.02;1656331;86;22445;-84
2022/07/30 11:21:44;;;;;;;3.22;1.00;;;;;;;22.41;42.10;101553.27;1631874;86;21107;-84
2022/07/30 11:24:45;;;;;;;3.15;0.95;;;;;;;22.42;42.00;101546.98;1631638;87;21087;-84
2022/07/30 11:27:39;;;;;;;2.30;0.70;;;;;;;22.47;42.20;101546.95;1636483;87;21112;-90
2022/07/30 11:30:18;;;;;;;;;;;;;;;22.50;42.13;101554.94;1695869;84;21106;-91
2022/07/30 11:32:46;;;;;;;0.82;0.70;;;;;;;22.46;42.07;101546.50;1669539;84;22639;-83
2022/07/30 11:35:27;;;;;;;2.65;0.90;;;;;;;22.46;42.03;101550.52;1686327;84;21052;-83
2022/07/30 11:38:17;;;;;;;1.45;1.00;;;;;;;22.44;42.16;101553.22;1680004;84;21056;-84